Dutch Harbor, AK

1:48 PM AKDT on July 29, 2016 (GMT -0800)
Dutch Harbor | | Change Station

Elev 13 ft 53.90 °N, 166.54 °W | Updated 49 minutes ago

Scattered Clouds
Scattered Clouds
58 °F
Feels Like 58 °F
N
0
Wind Variable Wind from North

Today
High -- | Low -- °F
--% Chance of Precip.
Yesterday
High -- | Low -- °F
Precip. -- in
Pressure 30.25 in
Visibility 10.0 miles
Clouds Scattered Clouds 1800 ft
Dew Point 49 °F
Humidity 72%
Rainfall 0.00 in
Snow Depth Not available.
7:19 AM 11:07 PM
Waning Crescent, 19% visible
METAR PADU 292059Z 00000KT 10SM SCT018 15/09 A3024 RMK AO2 SLP242 CS T01440094 53007
Pressure 30.25 in
Visibility 10.0 miles
Clouds Scattered Clouds 1800 ft
Dew Point 49 °F
Humidity 72%
Rainfall 0.00 in
Snow Depth Not available.
7:19 AM 11:07 PM
Waning Crescent, 19% visible
METAR PADU 292059Z 00000KT 10SM SCT018 15/09 A3024 RMK AO2 SLP242 CS T01440094 53007

10-Day Weather Forecast

Almanac

Astronomy

Jul. 29, 2016 Rise Set
Actual Time
Civil Twilight
Nautical Twilight
Astronomical Twilight
Moon
Length of Visible Light
Length of Day
Tomorrow will be .
, % of the Moon is Illuminated

Today's Extremes

State Highs State Lows

Community

WunderPhotos

Upload Photos

1,928,423 photos uploaded!

WunderBlog® & News

Nearby

Air Quality

  Air Quality AQ Index Pollutant
Not available.

Snow Depth

Station Depth Elevation

Earthquake Activity

City Distance Mag. Time & Date
Minimum magnitude displayed is 2.5.

Coastal Water Temperatures

Place Temperature

Stations

Nearby Weather Stations

Station Location Temp. Windchill Dew Point Humidity Wind Precip. Elev Updated Type
                   

Watches & Warnings

There are currently no watches in effect.